createdAt,value
2023-02-08T00:00:39.858Z,10.10
2023-02-08T00:01:24.425Z,9.70
2023-02-08T00:02:06.143Z,9.70
2023-02-08T00:02:48.160Z,9.97
2023-02-08T00:03:29.838Z,10.30
2023-02-08T00:04:11.511Z,9.47
2023-02-08T00:04:53.168Z,9.93
2023-02-08T00:05:34.939Z,10.40
2023-02-08T00:06:17.634Z,9.53
2023-02-08T00:06:59.382Z,9.60
2023-02-08T00:07:41.083Z,10.10
2023-02-08T00:08:22.808Z,10.23
2023-02-08T00:09:04.536Z,10.67
2023-02-08T00:09:46.252Z,9.97
2023-02-08T00:10:28.121Z,9.53
2023-02-08T00:11:10.756Z,9.13
2023-02-08T00:11:52.529Z,10.50
2023-02-08T00:12:34.647Z,9.40
2023-02-08T00:13:16.846Z,10.30
2023-02-08T00:13:58.541Z,9.77
2023-02-08T00:14:40.305Z,10.17
2023-02-08T00:15:22.396Z,10.00
2023-02-08T00:16:04.662Z,12.00
2023-02-08T00:16:46.638Z,11.47
2023-02-08T00:17:28.747Z,10.37
2023-02-08T00:18:10.750Z,10.47
2023-02-08T00:18:52.446Z,10.23
2023-02-08T00:19:34.087Z,9.37
2023-02-08T00:20:15.966Z,10.20
2023-02-08T00:20:57.743Z,10.20
2023-02-08T00:21:39.564Z,10.03
2023-02-08T00:22:21.320Z,9.30
2023-02-08T00:23:02.989Z,9.73
2023-02-08T00:23:44.927Z,10.13
2023-02-08T00:24:26.684Z,10.33
2023-02-08T00:25:08.857Z,10.10
2023-02-08T00:25:50.736Z,9.90
2023-02-08T00:26:32.526Z,11.33
2023-02-08T00:27:14.271Z,10.20
2023-02-08T00:27:55.918Z,10.90
2023-02-08T00:28:37.833Z,10.60
2023-02-08T00:29:19.675Z,10.50
2023-02-08T00:30:01.464Z,10.77
2023-02-08T00:30:46.095Z,10.63
2023-02-08T00:31:29.753Z,10.07
2023-02-08T00:32:11.533Z,10.60
2023-02-08T00:32:53.332Z,10.60
2023-02-08T00:33:35.198Z,10.53
2023-02-08T00:34:16.904Z,9.77
2023-02-08T00:34:59.026Z,11.23
2023-02-08T00:35:42.171Z,11.50
2023-02-08T00:36:23.824Z,9.80
2023-02-08T00:37:06.500Z,10.00
2023-02-08T00:37:48.191Z,10.30
2023-02-08T00:38:29.895Z,10.07
2023-02-08T00:39:11.501Z,9.93
2023-02-08T00:39:53.946Z,9.60
2023-02-08T00:40:35.731Z,10.63
2023-02-08T00:41:17.457Z,9.17
2023-02-08T00:42:01.362Z,9.27
2023-02-08T00:42:43.387Z,9.63
2023-02-08T00:43:25.344Z,9.47
2023-02-08T00:44:07.027Z,8.93
2023-02-08T00:44:50.337Z,9.33
2023-02-08T00:45:33.000Z,9.80
2023-02-08T00:46:14.696Z,9.53
2023-02-08T00:46:56.355Z,9.03
2023-02-08T00:47:38.099Z,9.07
2023-02-08T00:48:19.753Z,9.73
2023-02-08T00:49:01.470Z,8.87
2023-02-08T00:49:43.141Z,8.90
2023-02-08T00:50:25.211Z,9.20
2023-02-08T00:51:11.869Z,8.73
2023-02-08T00:51:53.482Z,9.33
2023-02-08T00:52:35.142Z,8.50
2023-02-08T00:53:16.779Z,8.90
2023-02-08T00:53:58.473Z,7.90
2023-02-08T00:54:41.918Z,8.70
2023-02-08T00:55:23.653Z,8.93
2023-02-08T00:56:06.397Z,8.80
2023-02-08T00:56:48.224Z,8.80
2023-02-08T00:57:32.147Z,8.47
2023-02-08T00:58:13.812Z,8.00
2023-02-08T00:58:55.531Z,8.53
2023-02-08T00:59:37.324Z,8.53
2023-02-08T01:00:19.217Z,8.30
2023-02-08T01:01:01.747Z,8.73
2023-02-08T01:01:46.039Z,8.33
2023-02-08T01:02:28.161Z,8.40
2023-02-08T01:03:10.298Z,8.30
2023-02-08T01:03:51.933Z,8.80
2023-02-08T01:04:33.890Z,7.90
2023-02-08T01:05:15.555Z,8.10
2023-02-08T01:06:01.568Z,7.73
2023-02-08T01:06:43.199Z,7.80
2023-02-08T01:07:26.563Z,8.17
2023-02-08T01:08:08.246Z,8.50
2023-02-08T01:08:49.931Z,7.83
2023-02-08T01:09:32.432Z,9.20
2023-02-08T01:10:14.208Z,8.40
2023-02-08T01:11:07.072Z,8.13
2023-02-08T01:11:48.712Z,8.53
2023-02-08T01:12:30.743Z,8.13
2023-02-08T01:13:12.429Z,8.23
2023-02-08T01:13:57.346Z,8.13
2023-02-08T01:14:40.043Z,8.03
2023-02-08T01:15:21.668Z,8.00
2023-02-08T01:16:18.091Z,7.77
2023-02-08T01:17:00.015Z,8.43
2023-02-08T01:17:41.666Z,8.40
2023-02-08T01:18:23.824Z,8.80
2023-02-08T01:19:06.301Z,8.30
2023-02-08T01:19:50.305Z,8.80
2023-02-08T01:20:36.318Z,8.30
2023-02-08T01:21:21.804Z,8.10
2023-02-08T01:22:03.582Z,8.80
2023-02-08T01:22:45.199Z,9.03
2023-02-08T01:23:26.853Z,9.10
2023-02-08T01:24:09.658Z,8.83
2023-02-08T01:24:51.368Z,8.57
2023-02-08T01:25:33.035Z,7.90
2023-02-08T01:26:16.716Z,8.67
2023-02-08T01:27:00.248Z,8.37
2023-02-08T01:27:42.223Z,7.30
2023-02-08T01:28:23.876Z,8.57
2023-02-08T01:29:05.720Z,8.63
2023-02-08T01:29:47.374Z,8.77
2023-02-08T01:30:29.082Z,8.10
2023-02-08T01:31:14.181Z,8.50
2023-02-08T01:31:55.947Z,9.03
2023-02-08T01:32:37.631Z,8.93
2023-02-08T01:33:19.443Z,8.00
2023-02-08T01:34:01.827Z,8.53
2023-02-08T01:34:44.280Z,8.20
2023-02-08T01:35:26.193Z,8.97
2023-02-08T01:36:09.029Z,8.90
2023-02-08T01:36:50.733Z,8.43
2023-02-08T01:37:32.421Z,8.20
2023-02-08T01:38:14.021Z,8.33
2023-02-08T01:38:56.173Z,7.50
2023-02-08T01:39:39.565Z,8.70
2023-02-08T01:40:21.242Z,8.77
2023-02-08T01:41:04.449Z,8.27
2023-02-08T01:41:46.768Z,8.40
2023-02-08T01:42:29.743Z,7.40
2023-02-08T01:43:27.793Z,8.20
2023-02-08T01:44:12.113Z,8.60
2023-02-08T01:45:15.567Z,9.33
2023-02-08T01:45:57.775Z,8.93
2023-02-08T01:46:44.803Z,9.07
2023-02-08T01:47:27.432Z,8.67
2023-02-08T01:48:13.623Z,7.90
2023-02-08T01:48:59.477Z,9.00
2023-02-08T01:49:41.128Z,10.40
2023-02-08T01:50:30.113Z,9.50
2023-02-08T01:51:17.905Z,9.60
2023-02-08T01:52:08.772Z,8.80
2023-02-08T01:52:51.249Z,9.03
2023-02-08T01:53:34.619Z,9.03
2023-02-08T01:54:19.274Z,9.27
2023-02-08T01:55:08.627Z,8.53
2023-02-08T01:55:53.613Z,9.33
2023-02-08T01:56:39.086Z,8.37
2023-02-08T01:57:22.025Z,8.57
2023-02-08T01:58:07.902Z,8.50
2023-02-08T01:58:54.040Z,8.10
2023-02-08T02:00:04.396Z,8.37
2023-02-08T02:00:55.708Z,7.73
2023-02-08T02:01:39.173Z,8.40
2023-02-08T02:02:22.887Z,8.97
2023-02-08T02:03:06.069Z,9.03
2023-02-08T02:03:47.776Z,9.00
2023-02-08T02:04:30.514Z,9.87
2023-02-08T02:05:13.457Z,9.20
2023-02-08T02:06:10.101Z,8.77
2023-02-08T02:06:59.155Z,9.37
2023-02-08T02:07:41.023Z,9.40
2023-02-08T02:08:22.777Z,9.63
2023-02-08T02:09:16.705Z,9.80
2023-02-08T02:10:01.788Z,10.23
2023-02-08T02:10:43.913Z,11.00
2023-02-08T02:11:25.702Z,11.30
2023-02-08T02:12:09.452Z,10.50
2023-02-08T02:12:52.217Z,10.40
2023-02-08T02:13:36.985Z,10.40
2023-02-08T02:14:18.872Z,10.27
2023-02-08T02:15:01.919Z,10.43
2023-02-08T02:15:46.081Z,9.87
2023-02-08T02:16:27.840Z,10.30
2023-02-08T02:17:12.509Z,11.50
2023-02-08T02:17:56.702Z,10.40
2023-02-08T02:18:38.632Z,10.37
2023-02-08T02:19:40.200Z,10.83
2023-02-08T02:20:38.408Z,9.93
2023-02-08T02:21:32.313Z,10.00
2023-02-08T02:22:29.081Z,10.40
2023-02-08T02:23:28.613Z,10.50
2023-02-08T02:24:39.380Z,10.07
2023-02-08T02:25:58.630Z,9.37
2023-02-08T02:27:37.304Z,10.20
2023-02-08T02:29:13.158Z,10.07
2023-02-08T02:30:00.770Z,10.23
2023-02-08T02:31:07.815Z,9.97
2023-02-08T02:32:04.703Z,10.30
2023-02-08T02:33:23.060Z,10.20
2023-02-08T02:34:31.936Z,10.73
2023-02-08T02:35:52.346Z,10.20
2023-02-08T02:36:52.589Z,10.37
2023-02-08T02:37:53.129Z,10.10
2023-02-08T02:38:47.014Z,10.23
2023-02-08T02:39:41.354Z,9.27
2023-02-08T02:40:38.149Z,9.23
2023-02-08T02:42:00.782Z,10.20
2023-02-08T02:43:25.723Z,8.70
2023-02-08T02:44:17.117Z,8.20
2023-02-08T02:45:11.037Z,8.50
2023-02-08T02:46:00.517Z,8.80
2023-02-08T02:46:47.099Z,8.47
2023-02-08T02:47:43.229Z,8.27
2023-02-08T02:48:37.073Z,8.87
2023-02-08T02:49:27.465Z,8.23
2023-02-08T02:50:14.949Z,8.33
2023-02-08T02:51:15.151Z,8.87
2023-02-08T02:52:06.737Z,8.63
2023-02-08T02:53:18.002Z,9.03
2023-02-08T02:54:06.691Z,8.47
2023-02-08T02:54:53.213Z,8.50
2023-02-08T02:55:41.087Z,8.40
2023-02-08T02:56:27.123Z,8.73
2023-02-08T02:57:12.638Z,8.37
2023-02-08T02:57:57.849Z,7.83
2023-02-08T02:58:41.065Z,7.90
2023-02-08T02:59:23.052Z,8.23
2023-02-08T03:00:10.280Z,7.97
2023-02-08T03:00:57.867Z,7.90
2023-02-08T03:01:40.289Z,8.83
2023-02-08T03:02:22.180Z,8.10
2023-02-08T03:03:03.826Z,8.47
2023-02-08T03:03:45.507Z,8.07
2023-02-08T03:04:33.305Z,8.40
2023-02-08T03:05:15.069Z,9.13
2023-02-08T03:06:07.033Z,9.27
2023-02-08T03:06:48.923Z,9.00
2023-02-08T03:07:52.216Z,9.10
2023-02-08T03:08:52.458Z,9.40
2023-02-08T03:10:03.260Z,8.87
2023-02-08T03:11:02.896Z,9.10
2023-02-08T03:12:01.949Z,9.07
2023-02-08T03:12:56.279Z,8.67
2023-02-08T03:13:59.615Z,8.80
2023-02-08T03:15:15.422Z,9.43
2023-02-08T03:16:26.637Z,8.93
2023-02-08T03:17:35.326Z,10.03
2023-02-08T03:18:16.876Z,8.70
2023-02-08T03:19:22.405Z,9.37
2023-02-08T03:20:17.731Z,9.03
2023-02-08T03:21:05.248Z,9.60
2023-02-08T03:21:55.507Z,8.70
2023-02-08T03:22:50.811Z,8.90
2023-02-08T03:23:41.397Z,9.10
2023-02-08T03:24:29.515Z,9.00
2023-02-08T03:25:21.248Z,8.30
2023-02-08T03:26:15.214Z,8.80
2023-02-08T03:27:08.658Z,8.60
2023-02-08T03:28:07.513Z,8.27
2023-02-08T03:29:30.711Z,8.33
2023-02-08T03:30:17.277Z,8.40
2023-02-08T03:31:13.033Z,9.60
2023-02-08T03:32:06.638Z,9.17
2023-02-08T03:33:05.021Z,8.40
2023-02-08T03:33:54.151Z,8.40
2023-02-08T03:34:41.790Z,8.67
2023-02-08T03:35:37.910Z,9.10
2023-02-08T03:36:51.725Z,9.57
2023-02-08T03:37:38.644Z,9.23
2023-02-08T03:38:34.988Z,9.67
2023-02-08T03:39:23.886Z,9.17
2023-02-08T03:40:46.889Z,9.57
2023-02-08T03:41:34.932Z,8.50
2023-02-08T03:42:23.113Z,9.30
2023-02-08T03:43:12.979Z,9.43
2023-02-08T03:44:00.252Z,8.97
2023-02-08T03:44:47.605Z,8.73
2023-02-08T03:45:44.617Z,9.60
2023-02-08T03:46:34.987Z,8.17
2023-02-08T03:47:22.154Z,8.83
2023-02-08T03:48:08.779Z,8.87
2023-02-08T03:48:57.172Z,9.87
2023-02-08T03:49:39.400Z,9.20
2023-02-08T03:50:22.490Z,9.73
2023-02-08T03:51:05.996Z,9.73
2023-02-08T03:51:49.226Z,9.07
2023-02-08T03:52:32.689Z,9.63
2023-02-08T03:53:19.169Z,9.60
2023-02-08T03:54:04.781Z,10.50
2023-02-08T03:55:13.356Z,9.63
2023-02-08T03:56:03.643Z,9.47
2023-02-08T03:56:52.456Z,9.63
2023-02-08T03:57:41.329Z,9.47
2023-02-08T03:58:32.412Z,9.70
2023-02-08T03:59:20.169Z,9.80
2023-02-08T04:00:14.511Z,9.73
2023-02-08T04:01:03.900Z,9.00
2023-02-08T04:01:52.230Z,9.93
2023-02-08T04:02:39.799Z,10.20
2023-02-08T04:03:27.900Z,9.80
2023-02-08T04:04:11.481Z,8.63
2023-02-08T04:04:55.470Z,9.40
2023-02-08T04:05:37.186Z,9.57
2023-02-08T04:06:18.815Z,9.57
2023-02-08T04:07:00.549Z,8.73
2023-02-08T04:07:42.183Z,9.97
2023-02-08T04:08:25.740Z,9.07
2023-02-08T04:09:07.685Z,9.00
2023-02-08T04:09:49.375Z,9.87
2023-02-08T04:10:31.113Z,10.07
2023-02-08T04:11:12.773Z,9.97
2023-02-08T04:11:54.682Z,9.93
2023-02-08T04:12:36.498Z,9.70
2023-02-08T04:13:18.287Z,9.97
2023-02-08T04:13:59.967Z,10.23
2023-02-08T04:14:41.642Z,10.50
2023-02-08T04:15:23.410Z,11.50
2023-02-08T04:16:05.588Z,12.27
2023-02-08T04:16:47.307Z,11.87
2023-02-08T04:17:29.027Z,10.73
2023-02-08T04:18:10.784Z,11.13
2023-02-08T04:18:52.398Z,16.10
2023-02-08T04:19:34.092Z,18.53
2023-02-08T04:20:15.786Z,14.53
2023-02-08T04:20:57.567Z,13.03
2023-02-08T04:21:39.223Z,13.07
2023-02-08T04:22:20.866Z,12.73
2023-02-08T04:23:02.481Z,13.47
2023-02-08T04:23:44.092Z,14.00
2023-02-08T04:24:25.854Z,14.13
2023-02-08T04:25:07.656Z,14.23
2023-02-08T04:25:49.268Z,13.17
2023-02-08T04:26:30.898Z,11.57
2023-02-08T04:27:12.811Z,16.87
2023-02-08T04:27:54.969Z,16.40
2023-02-08T04:28:36.643Z,18.57
2023-02-08T04:29:18.479Z,21.03
2023-02-08T04:30:00.137Z,23.00
2023-02-08T04:30:42.014Z,18.70
2023-02-08T04:31:23.980Z,24.43
2023-02-08T04:32:08.173Z,25.17
2023-02-08T04:32:49.931Z,24.40
2023-02-08T04:33:31.603Z,23.83
2023-02-08T04:34:13.329Z,24.20
2023-02-08T04:34:55.006Z,23.37
2023-02-08T04:35:36.683Z,23.37
2023-02-08T04:36:18.800Z,24.10
2023-02-08T04:37:00.638Z,22.00
2023-02-08T04:37:42.243Z,21.43
2023-02-08T04:38:23.891Z,19.87
2023-02-08T04:39:05.804Z,21.27
2023-02-08T04:39:47.499Z,24.10
2023-02-08T04:40:29.356Z,21.30
2023-02-08T04:41:11.411Z,20.13
2023-02-08T04:41:53.070Z,20.60
2023-02-08T04:42:35.198Z,19.40
2023-02-08T04:43:16.853Z,18.57
2023-02-08T04:43:58.574Z,18.40
2023-02-08T04:44:40.350Z,15.70
2023-02-08T04:45:22.065Z,13.23
2023-02-08T04:46:04.140Z,13.17
2023-02-08T04:46:45.865Z,15.40
2023-02-08T04:47:27.447Z,15.87
2023-02-08T04:48:10.478Z,14.50
2023-02-08T04:48:53.460Z,13.47
2023-02-08T04:49:35.127Z,12.97
2023-02-08T04:50:17.013Z,11.63
2023-02-08T04:50:59.176Z,11.83
2023-02-08T04:51:40.901Z,12.63
2023-02-08T04:52:22.848Z,12.13
2023-02-08T04:53:04.507Z,11.87
2023-02-08T04:53:46.245Z,10.93
2023-02-08T04:54:28.137Z,10.73
2023-02-08T04:55:09.884Z,12.17
2023-02-08T04:55:52.157Z,12.23
2023-02-08T04:56:33.806Z,11.07
2023-02-08T04:57:15.665Z,10.77
2023-02-08T04:57:57.901Z,11.27
2023-02-08T04:58:39.569Z,10.97
2023-02-08T04:59:21.224Z,11.20
2023-02-08T05:00:03.974Z,11.17
2023-02-08T05:00:46.089Z,10.20
2023-02-08T05:01:27.762Z,12.07
2023-02-08T05:02:09.880Z,12.10
2023-02-08T05:02:57.089Z,11.40
2023-02-08T05:03:38.847Z,12.33
2023-02-08T05:04:20.600Z,10.57
2023-02-08T05:05:02.321Z,10.17
2023-02-08T05:05:44.057Z,10.60
2023-02-08T05:06:25.850Z,10.30
2023-02-08T05:07:07.497Z,10.73
2023-02-08T05:07:49.211Z,11.80
2023-02-08T05:08:30.902Z,10.70
2023-02-08T05:09:12.515Z,10.20
2023-02-08T05:09:54.143Z,10.17
2023-02-08T05:10:35.797Z,9.93
2023-02-08T05:11:25.456Z,10.07
2023-02-08T05:12:07.186Z,10.77
2023-02-08T05:12:48.863Z,8.90
2023-02-08T05:13:30.939Z,10.70
2023-02-08T05:14:12.605Z,10.10
2023-02-08T05:14:54.271Z,10.17
2023-02-08T05:15:35.950Z,10.30
2023-02-08T05:16:17.671Z,10.80
2023-02-08T05:16:59.420Z,10.00
2023-02-08T05:17:41.202Z,9.67
2023-02-08T05:18:22.908Z,10.17
2023-02-08T05:19:04.564Z,10.93
2023-02-08T05:19:46.238Z,10.43
2023-02-08T05:20:28.295Z,10.47
2023-02-08T05:21:10.541Z,11.00
2023-02-08T05:21:52.267Z,9.93
2023-02-08T05:22:34.210Z,10.80
2023-02-08T05:23:15.860Z,10.70
2023-02-08T05:23:57.508Z,10.33
2023-02-08T05:24:39.195Z,11.10
2023-02-08T05:25:20.934Z,11.00
2023-02-08T05:26:10.303Z,10.07
2023-02-08T05:26:52.171Z,10.53
2023-02-08T05:27:34.964Z,10.73
2023-02-08T05:28:17.355Z,10.27
2023-02-08T05:28:59.126Z,10.57
2023-02-08T05:29:40.810Z,11.23
2023-02-08T05:30:22.631Z,11.17
2023-02-08T05:31:24.940Z,11.33
2023-02-08T05:32:07.407Z,10.37
2023-02-08T05:32:49.334Z,11.03
2023-02-08T05:33:31.005Z,10.67
2023-02-08T05:34:12.712Z,10.83
2023-02-08T05:34:54.460Z,10.37
2023-02-08T05:35:36.161Z,11.00
2023-02-08T05:36:19.015Z,11.03
2023-02-08T05:37:00.656Z,10.50
2023-02-08T05:37:42.421Z,10.33
2023-02-08T05:38:24.025Z,10.53
2023-02-08T05:39:06.072Z,11.17
2023-02-08T05:39:47.714Z,10.87
2023-02-08T05:40:29.553Z,10.90
2023-02-08T05:41:11.258Z,10.93
2023-02-08T05:41:52.924Z,11.57
2023-02-08T05:42:34.601Z,11.30
2023-02-08T05:43:16.433Z,10.70
2023-02-08T05:43:58.223Z,10.93
2023-02-08T05:44:39.976Z,11.37
2023-02-08T05:45:21.903Z,11.00
2023-02-08T05:46:03.703Z,10.93
2023-02-08T05:46:45.345Z,11.47
2023-02-08T05:47:27.123Z,12.00
2023-02-08T05:48:08.739Z,11.13
2023-02-08T05:48:50.403Z,10.77
2023-02-08T05:49:32.179Z,11.00
2023-02-08T05:50:14.486Z,11.43
2023-02-08T05:50:56.829Z,10.67
2023-02-08T05:51:38.592Z,10.10
2023-02-08T05:52:20.278Z,10.03
2023-02-08T05:53:02.074Z,11.17
2023-02-08T05:53:45.341Z,11.10
2023-02-08T05:54:27.100Z,10.37
2023-02-08T05:55:08.994Z,10.73
2023-02-08T05:55:50.925Z,11.17
2023-02-08T05:56:33.081Z,10.83
2023-02-08T05:57:14.892Z,10.53
2023-02-08T05:57:56.551Z,10.57
2023-02-08T05:58:38.306Z,10.37
2023-02-08T05:59:19.999Z,10.70
2023-02-08T06:00:01.727Z,10.27
2023-02-08T06:00:43.805Z,11.30
2023-02-08T06:01:25.479Z,11.70
2023-02-08T06:02:07.240Z,10.80
2023-02-08T06:02:49.107Z,12.20
2023-02-08T06:03:30.812Z,11.97
2023-02-08T06:04:12.732Z,10.80
2023-02-08T06:04:54.474Z,10.17
2023-02-08T06:05:38.640Z,10.17
2023-02-08T06:06:20.964Z,10.40
2023-02-08T06:07:02.689Z,10.70
2023-02-08T06:07:44.370Z,11.60
2023-02-08T06:08:26.067Z,10.80
2023-02-08T06:09:07.775Z,10.80
2023-02-08T06:09:49.430Z,11.30
2023-02-08T06:10:31.141Z,10.30
2023-02-08T06:11:13.395Z,9.90
2023-02-08T06:11:55.031Z,11.33
2023-02-08T06:12:36.698Z,11.23
2023-02-08T06:13:18.340Z,10.20
2023-02-08T06:14:00.172Z,10.37
2023-02-08T06:14:41.970Z,10.80
2023-02-08T06:15:23.683Z,11.23
2023-02-08T06:16:06.721Z,10.97
2023-02-08T06:16:48.590Z,11.13
2023-02-08T06:17:30.344Z,10.37
2023-02-08T06:18:12.022Z,10.53
2023-02-08T06:18:53.673Z,10.83
2023-02-08T06:19:35.307Z,10.43
2023-02-08T06:20:17.250Z,10.90
2023-02-08T06:20:58.936Z,9.87
2023-02-08T06:21:42.138Z,10.10
2023-02-08T06:22:24.530Z,10.30
2023-02-08T06:23:06.221Z,10.73
2023-02-08T06:23:47.893Z,11.60
2023-02-08T06:24:29.681Z,10.90
2023-02-08T06:25:11.471Z,11.10
2023-02-08T06:25:53.569Z,10.33
2023-02-08T06:26:35.325Z,12.07
2023-02-08T06:27:17.288Z,11.53
2023-02-08T06:27:58.947Z,11.43
2023-02-08T06:28:40.664Z,9.87
2023-02-08T06:29:22.452Z,10.47
2023-02-08T06:30:04.460Z,11.23
2023-02-08T06:30:46.322Z,10.77
2023-02-08T06:31:28.104Z,10.53
2023-02-08T06:32:11.427Z,11.03
2023-02-08T06:32:53.132Z,10.70
2023-02-08T06:33:34.940Z,10.57
2023-02-08T06:34:16.678Z,10.37
2023-02-08T06:34:58.388Z,10.37
2023-02-08T06:35:40.022Z,10.63
2023-02-08T06:36:21.744Z,10.60
2023-02-08T06:37:05.588Z,11.30
2023-02-08T06:37:47.264Z,10.97
2023-02-08T06:38:28.956Z,10.77
2023-02-08T06:39:10.573Z,10.70
2023-02-08T06:39:52.214Z,10.50
2023-02-08T06:40:33.834Z,10.27
2023-02-08T06:41:15.617Z,11.03
2023-02-08T06:41:57.631Z,10.00
2023-02-08T06:42:39.318Z,10.73
2023-02-08T06:43:21.016Z,10.50
2023-02-08T06:44:02.791Z,11.27
2023-02-08T06:44:54.476Z,10.00
2023-02-08T06:45:36.579Z,10.07
2023-02-08T06:46:18.351Z,10.47
2023-02-08T06:47:00.100Z,11.13
2023-02-08T06:47:42.116Z,9.87
2023-02-08T06:48:23.909Z,9.90
2023-02-08T06:49:05.610Z,10.43
2023-02-08T06:49:47.280Z,10.50
2023-02-08T06:50:28.957Z,9.90
2023-02-08T06:51:10.572Z,10.37
2023-02-08T06:51:52.235Z,10.03
2023-02-08T06:52:33.912Z,9.57
2023-02-08T06:53:15.595Z,9.77
2023-02-08T06:53:57.235Z,11.20
2023-02-08T06:54:38.885Z,10.67
2023-02-08T06:55:20.529Z,10.37
2023-02-08T06:56:02.264Z,11.07
2023-02-08T06:56:44.002Z,11.20
2023-02-08T06:57:25.965Z,10.10
2023-02-08T06:58:07.641Z,10.67
2023-02-08T06:58:49.319Z,9.77
2023-02-08T06:59:31.097Z,10.90
2023-02-08T07:00:13.276Z,10.87
2023-02-08T07:00:54.935Z,10.63
2023-02-08T07:01:36.805Z,10.20
2023-02-08T07:02:20.917Z,10.43
2023-02-08T07:03:02.626Z,10.53
2023-02-08T07:03:44.363Z,10.67
2023-02-08T07:04:26.178Z,11.47
2023-02-08T07:05:08.076Z,13.97
2023-02-08T07:06:04.240Z,12.20
2023-02-08T07:06:52.462Z,11.07
2023-02-08T07:07:34.211Z,12.07
2023-02-08T07:08:16.071Z,10.33
2023-02-08T07:08:57.801Z,12.67
2023-02-08T07:09:39.826Z,11.10
2023-02-08T07:10:21.675Z,11.57
2023-02-08T07:11:11.640Z,11.07
2023-02-08T07:11:53.407Z,11.17
2023-02-08T07:12:36.463Z,10.77
2023-02-08T07:13:18.181Z,11.17
2023-02-08T07:14:00.003Z,10.77
2023-02-08T07:14:43.496Z,11.23
2023-02-08T07:15:25.144Z,11.70
2023-02-08T07:16:08.307Z,11.23
2023-02-08T07:16:49.983Z,11.13
2023-02-08T07:17:31.713Z,9.90
2023-02-08T07:18:13.406Z,11.87
2023-02-08T07:18:55.119Z,10.67
2023-02-08T07:19:47.370Z,11.60
2023-02-08T07:20:48.863Z,10.67
2023-02-08T07:21:30.651Z,10.77
2023-02-08T07:22:12.423Z,10.67
2023-02-08T07:22:54.237Z,11.57
2023-02-08T07:23:35.975Z,10.83
2023-02-08T07:24:17.739Z,11.00
2023-02-08T07:24:59.497Z,10.73
2023-02-08T07:25:41.135Z,10.63
2023-02-08T07:26:22.798Z,11.40
2023-02-08T07:27:05.706Z,11.63
2023-02-08T07:27:47.413Z,11.27
2023-02-08T07:28:29.519Z,11.70
2023-02-08T07:29:11.216Z,10.30
2023-02-08T07:29:53.003Z,10.87
2023-02-08T07:30:34.716Z,10.47
2023-02-08T07:31:18.080Z,10.43
2023-02-08T07:32:01.260Z,11.10
2023-02-08T07:32:43.013Z,10.30
2023-02-08T07:33:25.515Z,11.90
2023-02-08T07:34:07.281Z,11.60
2023-02-08T07:34:48.954Z,11.07
2023-02-08T07:35:30.607Z,11.43
2023-02-08T07:36:12.543Z,11.03
2023-02-08T07:36:54.213Z,11.63
2023-02-08T07:37:35.860Z,11.37
2023-02-08T07:38:20.638Z,10.53
2023-02-08T07:39:02.968Z,11.23
2023-02-08T07:39:44.656Z,11.60
2023-02-08T07:40:26.427Z,11.83
2023-02-08T07:41:11.056Z,11.20
2023-02-08T07:41:53.126Z,10.97
2023-02-08T07:42:35.225Z,11.80
2023-02-08T07:43:27.358Z,12.03
2023-02-08T07:44:13.897Z,10.67
2023-02-08T07:44:55.562Z,10.83
2023-02-08T07:45:38.741Z,11.43
2023-02-08T07:46:21.852Z,10.83
2023-02-08T07:47:04.534Z,11.73
2023-02-08T07:47:46.651Z,12.00
2023-02-08T07:48:28.411Z,11.33
2023-02-08T07:49:10.189Z,11.80
2023-02-08T07:49:51.841Z,12.20
2023-02-08T07:50:33.612Z,11.20
2023-02-08T07:51:15.662Z,12.60
2023-02-08T07:51:57.292Z,13.30
2023-02-08T07:52:38.962Z,13.90
2023-02-08T07:53:20.641Z,13.00
2023-02-08T07:54:02.762Z,14.27
2023-02-08T07:54:44.512Z,16.60
2023-02-08T07:55:27.558Z,14.17
2023-02-08T07:56:10.449Z,13.37
2023-02-08T07:56:53.036Z,13.57
2023-02-08T07:57:35.511Z,12.40
2023-02-08T07:58:17.215Z,10.80
2023-02-08T07:58:59.141Z,11.10
2023-02-08T07:59:40.845Z,13.60
2023-02-08T08:00:22.900Z,13.03
2023-02-08T08:01:19.683Z,13.30
2023-02-08T08:02:03.768Z,14.33
2023-02-08T08:02:56.111Z,14.23
2023-02-08T08:03:38.200Z,11.87
2023-02-08T08:04:20.162Z,11.47
2023-02-08T08:05:01.886Z,12.70
2023-02-08T08:05:43.590Z,12.90
2023-02-08T08:06:25.277Z,12.40
2023-02-08T08:07:06.940Z,13.13
2023-02-08T08:07:48.603Z,13.90
2023-02-08T08:08:30.464Z,13.83
2023-02-08T08:09:12.304Z,13.80
2023-02-08T08:09:54.076Z,12.77
2023-02-08T08:10:36.084Z,12.93
2023-02-08T08:11:20.025Z,13.00
2023-02-08T08:12:02.713Z,12.13
2023-02-08T08:12:44.434Z,12.07
2023-02-08T08:13:26.166Z,12.63
2023-02-08T08:14:07.882Z,11.43
2023-02-08T08:14:50.136Z,12.13
2023-02-08T08:15:31.936Z,12.03
2023-02-08T08:16:13.669Z,12.20
2023-02-08T08:16:55.440Z,12.47
2023-02-08T08:17:37.196Z,11.77
2023-02-08T08:18:18.906Z,11.47
2023-02-08T08:19:00.568Z,11.80
2023-02-08T08:19:42.326Z,11.87
2023-02-08T08:20:24.301Z,11.80
2023-02-08T08:21:06.586Z,11.67
2023-02-08T08:21:48.281Z,12.13
2023-02-08T08:22:30.001Z,12.93
2023-02-08T08:23:11.701Z,11.90
2023-02-08T08:23:55.406Z,13.97
2023-02-08T08:24:37.540Z,14.00
2023-02-08T08:25:19.400Z,12.20
2023-02-08T08:26:01.085Z,13.47
2023-02-08T08:26:42.921Z,13.67
2023-02-08T08:27:24.612Z,14.68
2023-02-08T08:28:06.328Z,12.87
2023-02-08T08:28:49.044Z,12.93
2023-02-08T08:29:34.899Z,12.20
2023-02-08T08:30:17.294Z,11.82
2023-02-08T08:30:59.218Z,11.95
2023-02-08T08:31:42.885Z,11.55
2023-02-08T08:32:24.584Z,11.13
2023-02-08T08:33:06.974Z,12.20
2023-02-08T08:33:49.517Z,10.20
2023-02-08T08:34:31.665Z,11.48
2023-02-08T08:35:13.573Z,10.18
2023-02-08T08:35:55.282Z,11.48
2023-02-08T08:36:37.022Z,11.23
2023-02-08T08:37:18.782Z,11.53
2023-02-08T08:38:00.485Z,13.02
2023-02-08T08:38:42.262Z,11.75
2023-02-08T08:39:24.692Z,12.60
2023-02-08T08:40:07.899Z,13.32
2023-02-08T08:40:49.532Z,11.50
2023-02-08T08:41:31.304Z,10.70
2023-02-08T08:42:13.091Z,11.00
2023-02-08T08:42:54.777Z,12.65
2023-02-08T08:43:36.491Z,11.20
2023-02-08T08:44:18.185Z,11.02
2023-02-08T08:44:59.988Z,11.57
2023-02-08T08:45:41.700Z,11.30
2023-02-08T08:46:23.477Z,11.45
2023-02-08T08:47:06.164Z,11.25
2023-02-08T08:47:47.872Z,11.60
2023-02-08T08:48:29.719Z,11.18
2023-02-08T08:49:11.530Z,11.13
2023-02-08T08:49:53.327Z,11.48
2023-02-08T08:50:34.965Z,11.30
2023-02-08T08:51:16.651Z,10.25
2023-02-08T08:51:58.438Z,10.30
2023-02-08T08:52:40.789Z,11.27
2023-02-08T08:53:23.146Z,11.65
2023-02-08T08:54:05.621Z,11.30
2023-02-08T08:54:47.393Z,10.43
2023-02-08T08:55:29.152Z,10.80
2023-02-08T08:56:11.106Z,10.25
2023-02-08T08:56:52.852Z,10.98
2023-02-08T08:57:34.886Z,11.15
2023-02-08T08:58:16.916Z,11.23
2023-02-08T08:58:59.055Z,11.07
2023-02-08T08:59:40.970Z,11.40
2023-02-08T09:00:23.084Z,11.23
2023-02-08T09:01:04.935Z,10.73
2023-02-08T09:01:46.764Z,11.98
2023-02-08T09:02:28.776Z,11.90
2023-02-08T09:03:10.672Z,11.25
2023-02-08T09:03:52.485Z,11.70
2023-02-08T09:04:34.374Z,11.98
2023-02-08T09:05:16.073Z,11.23
2023-02-08T09:05:57.825Z,11.65
2023-02-08T09:06:39.541Z,11.77
2023-02-08T09:07:21.313Z,10.80
2023-02-08T09:08:03.520Z,10.70
2023-02-08T09:08:45.146Z,11.05
2023-02-08T09:09:26.874Z,9.63
2023-02-08T09:10:08.868Z,11.40
2023-02-08T09:10:50.851Z,11.25
2023-02-08T09:11:33.301Z,10.93
2023-02-08T09:12:15.980Z,10.48
2023-02-08T09:12:58.909Z,10.45
2023-02-08T09:13:41.521Z,10.57
2023-02-08T09:14:23.193Z,11.05
2023-02-08T09:15:05.370Z,10.68
2023-02-08T09:15:48.335Z,11.88
2023-02-08T09:16:30.298Z,10.10
2023-02-08T09:17:12.292Z,10.13
2023-02-08T09:17:53.942Z,10.73
2023-02-08T09:18:35.778Z,11.43
2023-02-08T09:19:17.446Z,11.85
2023-02-08T09:19:59.188Z,11.80
2023-02-08T09:20:43.420Z,11.00
2023-02-08T09:21:25.494Z,11.63
2023-02-08T09:22:07.563Z,11.23
2023-02-08T09:22:49.500Z,10.73
2023-02-08T09:23:31.218Z,11.07
2023-02-08T09:24:13.120Z,11.93
2023-02-08T09:24:54.876Z,11.52
2023-02-08T09:25:37.451Z,11.30
2023-02-08T09:26:20.338Z,11.20
2023-02-08T09:27:02.114Z,12.18
2023-02-08T09:27:43.807Z,12.63
2023-02-08T09:28:26.277Z,12.75
2023-02-08T09:29:08.102Z,11.77
2023-02-08T09:29:49.773Z,11.73
2023-02-08T09:30:31.839Z,11.63
2023-02-08T09:31:16.317Z,11.60
2023-02-08T09:31:58.347Z,10.07
2023-02-08T09:32:40.155Z,11.30
2023-02-08T09:33:21.782Z,12.00
2023-02-08T09:34:04.835Z,10.70
2023-02-08T09:34:46.981Z,10.18
2023-02-08T09:35:28.755Z,10.23
2023-02-08T09:36:10.560Z,10.73
2023-02-08T09:36:52.220Z,10.57
2023-02-08T09:37:34.472Z,11.65
2023-02-08T09:38:16.247Z,10.90
2023-02-08T09:39:01.714Z,10.68